Time;durP1;ratioP1;P1;durP2;ratioP2;P2;SDS_P1;SDS_P2;PMS_P1;PMS_P2;Temp;Humidity;BMP_temperature;BMP_pressure;BME280_temperature;BME280_humidity;BME280_pressure;Samples;Min_cycle;Max_cycle;Signal;HPM_P1;HPM_P2
2024/01/19 08:07:12;;;;;;;43.97;15.52;;;;;;;-4.34;97.56;96745.19;2082387;28;20539;-59
2024/01/19 08:08:15;;;;;;;27.60;14.98;;;;;;;-4.19;96.50;96749.66;2084838;28;20282;-56
2024/01/19 08:09:18;;;;;;;27.20;13.60;;;;;;;-3.85;96.10;96751.81;2085273;28;20204;-57
2024/01/19 08:10:20;;;;;;;27.30;13.00;;;;;;;-3.14;94.25;96753.56;2086457;28;20192;-59
2024/01/19 08:11:22;;;;;;;29.20;14.13;;;;;;;-2.46;91.87;96761.84;2086339;28;20204;-57
2024/01/19 08:12:23;;;;;;;23.02;12.18;;;;;;;-1.93;89.85;96764.81;2085327;28;20196;-57
2024/01/19 08:13:25;;;;;;;20.90;12.00;;;;;;;-1.02;87.56;96756.69;2078389;28;20554;-57
2024/01/19 08:14:27;;;;;;;24.25;11.55;;;;;;;-0.72;83.63;96761.03;2077834;28;20588;-57
2024/01/19 08:15:29;;;;;;;20.38;10.52;;;;;;;-0.47;82.53;96766.19;2077797;28;20249;-57
2024/01/19 08:16:31;;;;;;;23.23;11.13;;;;;;;-0.08;81.62;96767.03;2078249;28;20207;-57
2024/01/19 08:17:32;;;;;;;24.67;10.65;;;;;;;0.26;79.88;96768.72;2077859;28;20597;-57
2024/01/19 08:18:34;;;;;;;17.58;9.80;;;;;;;0.58;78.32;96768.63;2077971;28;20193;-57
2024/01/19 08:19:41;;;;;;;17.25;10.00;;;;;;;0.64;77.56;96773.72;2085041;28;20197;-61
2024/01/19 08:20:42;;;;;;;18.70;9.00;;;;;;;0.71;77.86;96771.16;2084967;28;20200;-57
2024/01/19 08:21:44;;;;;;;19.75;9.30;;;;;;;0.84;77.00;96759.09;2077866;28;20201;-57
2024/01/19 08:22:46;;;;;;;19.60;9.70;;;;;;;1.23;76.07;96770.03;2077771;28;20224;-60
2024/01/19 08:23:47;;;;;;;18.70;10.82;;;;;;;1.67;72.63;96762.91;2078378;28;20201;-57
2024/01/19 08:24:48;;;;;;;18.73;9.80;;;;;;;1.97;70.90;96756.66;2078341;28;20208;-58
2024/01/19 08:25:50;;;;;;;18.05;10.88;;;;;;;0.64;71.90;96765.19;2077085;28;20193;-58
2024/01/19 08:26:51;;;;;;;19.30;11.50;;;;;;;0.88;73.74;96769.38;2076212;28;20611;-58
2024/01/19 08:27:53;;;;;;;25.13;10.93;;;;;;;0.95;73.43;96776.22;2077720;28;20826;-58
2024/01/19 08:28:54;;;;;;;21.08;10.32;;;;;;;1.52;74.08;96767.28;2077515;28;20716;-58
2024/01/19 08:29:56;;;;;;;20.05;10.23;;;;;;;2.01;71.34;96768.63;2077741;28;20622;-61
2024/01/19 08:30:57;;;;;;;19.70;10.35;;;;;;;2.42;70.89;96772.53;2078402;28;20728;-62
2024/01/19 08:31:59;;;;;;;19.92;9.63;;;;;;;2.42;70.89;96772.53;2078658;28;20208;-62
2024/01/19 08:33:01;;;;;;;22.20;10.00;;;;;;;3.24;66.93;96770.72;2080011;28;20504;-62
2024/01/19 08:34:03;;;;;;;17.00;9.93;;;;;;;3.06;68.84;96777.81;2071489;28;20202;-59
2024/01/19 08:35:08;;;;;;;16.73;10.02;;;;;;;3.68;67.20;96783.84;2070046;28;20210;-62
2024/01/19 08:36:10;;;;;;;22.90;11.18;;;;;;;3.83;65.87;96770.69;2078068;28;20201;-62
2024/01/19 08:37:13;;;;;;;25.13;10.93;;;;;;;3.90;65.46;96779.22;2077451;28;20193;-62
2024/01/19 08:38:14;;;;;;;20.15;10.52;;;;;;;3.97;65.23;96778.22;2076742;28;20308;-59
2024/01/19 08:39:16;;;;;;;21.65;11.02;;;;;;;4.29;64.45;96784.59;2077522;28;20552;-60
2024/01/19 08:40:17;;;;;;;20.67;11.02;;;;;;;4.02;64.39;96784.16;2077407;28;20203;-60
2024/01/19 08:41:20;;;;;;;17.38;9.57;;;;;;;4.04;66.19;96789.34;2076767;28;20204;-59
2024/01/19 08:42:23;;;;;;;18.65;10.48;;;;;;;4.21;66.67;96782.13;2077320;28;20180;-60
2024/01/19 08:43:24;;;;;;;22.70;11.35;;;;;;;4.27;65.06;96785.47;2078172;28;20242;-60
2024/01/19 08:44:26;;;;;;;25.35;10.52;;;;;;;4.39;63.78;96791.31;2078274;28;20234;-63
2024/01/19 08:45:30;;;;;;;19.25;11.15;;;;;;;4.67;63.77;96793.41;2077428;28;20201;-64
2024/01/19 08:46:33;;;;;;;19.77;11.07;;;;;;;4.59;63.24;96797.84;2077221;28;20208;-60
2024/01/19 08:47:35;;;;;;;20.85;12.50;;;;;;;4.79;62.58;96792.31;2077152;28;20208;-60
2024/01/19 08:48:37;;;;;;;23.13;12.00;;;;;;;5.68;61.34;96789.56;2077447;28;20254;-59
2024/01/19 08:49:42;;;;;;;23.88;12.20;;;;;;;5.55;60.33;96801.09;2077967;28;20205;-59
2024/01/19 08:50:44;;;;;;;21.23;12.73;;;;;;;5.22;60.24;96793.19;2077414;28;20637;-59
2024/01/19 08:51:47;;;;;;;23.50;13.45;;;;;;;5.03;59.99;96805.66;2077720;28;20197;-60
2024/01/19 08:52:49;;;;;;;24.67;13.02;;;;;;;5.04;59.89;96800.44;2076641;28;20286;-59
2024/01/19 08:53:50;;;;;;;22.48;12.32;;;;;;;5.20;60.84;96803.53;2078128;28;20201;-59
2024/01/19 08:54:51;;;;;;;19.25;11.77;;;;;;;5.51;59.90;96800.31;2077948;28;20220;-59
2024/01/19 08:55:53;;;;;;;21.42;12.15;;;;;;;5.27;59.63;96801.72;2078278;28;20220;-59
2024/01/19 08:56:55;;;;;;;23.25;13.13;;;;;;;5.50;59.81;96802.94;2077995;28;20339;-60
2024/01/19 08:57:59;;;;;;;23.35;12.43;;;;;;;5.48;59.33;96796.94;2081295;28;20231;-59
2024/01/19 08:59:01;;;;;;;24.38;13.27;;;;;;;4.67;61.83;96813.22;2085197;28;20211;-63
2024/01/19 09:00:04;;;;;;;21.90;12.27;;;;;;;4.38;62.45;96815.47;2077547;28;20254;-64
2024/01/19 09:01:06;;;;;;;23.27;12.70;;;;;;;5.19;61.49;96816.53;2077249;28;20735;-64
2024/01/19 09:02:08;;;;;;;21.90;12.63;;;;;;;6.20;57.78;96807.41;2078149;28;20212;-64
2024/01/19 09:03:09;;;;;;;21.92;12.02;;;;;;;6.10;57.31;96808.53;2077124;28;20233;-64
2024/01/19 09:04:11;;;;;;;22.40;12.80;;;;;;;5.16;59.67;96811.44;2078268;28;20217;-64
2024/01/19 09:05:12;;;;;;;21.40;11.27;;;;;;;5.18;60.58;96820.00;2077935;28;20303;-59
2024/01/19 09:06:14;;;;;;;23.23;11.45;;;;;;;5.48;59.15;96815.91;2077189;28;20193;-59
2024/01/19 09:07:16;;;;;;;20.27;11.02;;;;;;;5.82;58.87;96817.75;2077818;28;20300;-59
2024/01/19 09:08:18;;;;;;;18.45;11.20;;;;;;;7.13;57.56;96813.59;2074971;28;20293;-60
2024/01/19 09:09:20;;;;;;;20.65;12.60;;;;;;;5.58;57.87;96819.16;2077236;28;20239;-59
2024/01/19 09:10:23;;;;;;;19.13;12.23;;;;;;;5.44;59.50;96828.97;2077029;28;20205;-59
2024/01/19 09:11:26;;;;;;;26.58;13.02;;;;;;;5.00;60.27;96822.09;2077652;28;20201;-59
2024/01/19 09:12:28;;;;;;;23.75;13.73;;;;;;;4.66;61.31;96830.50;2077421;28;20334;-59
2024/01/19 09:13:30;;;;;;;20.90;12.57;;;;;;;4.80;62.16;96837.13;2077443;28;20242;-59
2024/01/19 09:14:31;;;;;;;23.77;13.95;;;;;;;5.09;61.99;96833.13;2077942;28;20193;-59
2024/01/19 09:15:33;;;;;;;21.85;11.82;;;;;;;5.31;61.22;96828.41;2081257;28;20536;-59
2024/01/19 09:16:34;;;;;;;19.88;12.45;;;;;;;5.75;60.63;96831.72;2079364;28;20215;-60
2024/01/19 09:17:36;;;;;;;23.45;13.40;;;;;;;5.95;59.70;96841.66;2079410;28;20263;-60
2024/01/19 09:18:38;;;;;;;19.83;11.57;;;;;;;6.76;58.89;96830.19;2072929;28;20197;-61
2024/01/19 09:19:40;;;;;;;20.65;10.85;;;;;;;6.83;57.67;96834.34;2072220;28;20221;-63
2024/01/19 09:20:42;;;;;;;29.83;12.80;;;;;;;7.29;56.39;96840.00;2073615;28;20743;-60
2024/01/19 09:21:44;;;;;;;20.05;11.13;;;;;;;7.41;56.08;96843.13;2072495;28;20260;-61
2024/01/19 09:22:46;;;;;;;19.10;11.07;;;;;;;7.84;54.59;96845.31;2071673;28;20340;-66
2024/01/19 09:23:47;;;;;;;22.98;11.65;;;;;;;7.61;54.63;96851.19;2073710;28;20244;-66
2024/01/19 09:24:49;;;;;;;22.88;13.30;;;;;;;7.49;54.53;96854.16;2075963;28;20198;-66
2024/01/19 09:25:51;;;;;;;23.45;13.52;;;;;;;7.48;55.47;96855.91;2077219;28;20198;-65
2024/01/19 09:26:52;;;;;;;23.27;12.23;;;;;;;7.18;56.33;96858.47;2076672;28;20248;-64
2024/01/19 09:27:54;;;;;;;20.88;12.40;;;;;;;6.98;56.71;96860.75;2073383;28;20926;-66
2024/01/19 09:28:56;;;;;;;22.60;13.38;;;;;;;7.16;56.77;96854.22;2076410;28;20549;-66
2024/01/19 09:29:57;;;;;;;19.05;11.45;;;;;;;7.49;55.32;96859.34;2072862;28;20236;-66
2024/01/19 09:31:00;;;;;;;20.85;11.85;;;;;;;6.96;56.94;96865.16;2072520;28;20608;-66
2024/01/19 09:32:01;;;;;;;19.48;10.82;;;;;;;7.99;55.06;96861.34;2072019;28;20293;-66
2024/01/19 09:33:03;;;;;;;20.05;11.00;;;;;;;8.24;53.19;96873.56;2071665;28;20243;-66
2024/01/19 09:34:04;;;;;;;25.95;12.27;;;;;;;8.45;53.25;96872.03;2071850;28;20213;-66
2024/01/19 09:35:06;;;;;;;18.75;10.57;;;;;;;9.52;51.85;96866.63;2071925;28;20202;-66
2024/01/19 09:36:08;;;;;;;18.10;10.20;;;;;;;8.78;53.10;96862.28;2072263;28;20621;-61
2024/01/19 09:37:10;;;;;;;18.65;11.20;;;;;;;9.18;52.66;96867.00;2071354;28;20198;-60
2024/01/19 09:38:11;;;;;;;25.48;11.52;;;;;;;9.16;52.17;96867.06;2070212;28;20677;-61
2024/01/19 09:39:13;;;;;;;17.92;10.50;;;;;;;9.29;52.03;96877.91;2072111;28;20298;-61
2024/01/19 09:40:15;;;;;;;18.23;12.07;;;;;;;8.82;52.32;96868.25;2072480;28;20205;-61
2024/01/19 09:41:37;;;;;;;17.77;10.27;;;;;;;8.61;53.05;96877.63;2071817;28;20198;-61
2024/01/19 09:42:39;;;;;;;17.60;9.18;;;;;;;8.81;52.71;96869.13;2071862;28;20612;-61
2024/01/19 09:43:43;;;;;;;18.80;9.32;;;;;;;9.11;51.48;96880.25;2072044;28;20202;-61
2024/01/19 09:44:54;;;;;;;17.30;9.57;;;;;;;8.85;51.10;96888.13;2072392;28;20202;-61
2024/01/19 09:45:59;;;;;;;16.73;9.35;;;;;;;9.07;51.74;96894.28;2079448;28;20197;-61
2024/01/19 09:47:14;;;;;;;19.52;10.35;;;;;;;8.71;52.36;96894.66;2071025;28;20202;-63
2024/01/19 09:48:24;;;;;;;16.50;9.30;;;;;;;8.54;52.16;96899.56;2069818;28;20686;-61
2024/01/19 09:49:46;;;;;;;17.70;9.82;;;;;;;8.97;51.36;96893.75;2072326;28;20197;-61
2024/01/19 09:50:51;;;;;;;23.83;10.05;;;;;;;9.48;50.48;96896.34;2071859;28;20440;-60
2024/01/19 09:51:59;;;;;;;15.07;9.15;;;;;;;9.37;49.82;96899.34;2079956;28;20292;-61
2024/01/19 09:53:14;;;;;;;12.02;8.13;;;;;;;9.56;51.03;96896.06;2077039;28;20231;-60
2024/01/19 09:54:26;;;;;;;18.98;8.88;;;;;;;9.12;51.39;96907.16;2072076;28;20649;-61
2024/01/19 09:55:29;;;;;;;16.92;8.65;;;;;;;8.98;51.00;96902.44;2071844;28;20197;-61
2024/01/19 09:56:30;;;;;;;18.60;9.00;;;;;;;8.86;51.02;96897.63;2074100;28;20396;-60
2024/01/19 09:57:34;;;;;;;17.48;9.02;;;;;;;8.77;51.40;96901.41;2075420;28;20206;-60
2024/01/19 09:58:36;;;;;;;14.63;9.02;;;;;;;8.35;51.59;96907.91;2072168;28;20201;-60
2024/01/19 09:59:37;;;;;;;15.02;8.77;;;;;;;8.76;51.93;96902.28;2071681;28;20268;-61
2024/01/19 10:00:39;;;;;;;18.98;9.30;;;;;;;8.41;52.00;96914.69;2071455;28;20214;-60
2024/01/19 10:01:40;;;;;;;12.35;7.88;;;;;;;8.65;51.98;96919.13;2072254;28;20201;-60
2024/01/19 10:02:44;;;;;;;16.13;9.20;;;;;;;9.23;50.57;96910.25;2071728;28;20285;-60
2024/01/19 10:03:48;;;;;;;15.45;7.18;;;;;;;9.13;50.41;96912.31;2071984;28;20224;-60
2024/01/19 10:04:53;;;;;;;12.77;7.57;;;;;;;8.45;51.55;96914.53;2072401;28;20202;-60
2024/01/19 10:05:54;;;;;;;25.08;8.00;;;;;;;8.71;51.47;96915.47;2076103;28;20224;-60
2024/01/19 10:06:56;;;;;;;18.63;7.97;;;;;;;8.73;52.13;96923.25;2075276;28;20241;-60
2024/01/19 10:07:58;;;;;;;12.35;7.55;;;;;;;8.83;52.38;96927.22;2071259;28;20221;-60
2024/01/19 10:09:01;;;;;;;18.50;8.88;;;;;;;9.31;51.02;96925.63;2071615;28;20206;-60
2024/01/19 10:10:02;;;;;;;17.92;8.25;;;;;;;8.72;52.13;96895.50;2070827;28;20268;-60
2024/01/19 10:11:05;;;;;;;16.80;7.93;;;;;;;9.32;52.29;96930.78;2072103;28;20215;-60
2024/01/19 10:12:07;;;;;;;13.68;8.50;;;;;;;9.33;51.66;96931.59;2071181;28;20194;-60
2024/01/19 10:13:09;;;;;;;17.15;9.23;;;;;;;9.09;51.32;96928.09;2071356;28;20273;-60
2024/01/19 10:14:11;;;;;;;14.27;7.88;;;;;;;9.56;50.11;96937.75;2071158;28;20197;-60
2024/01/19 10:15:14;;;;;;;16.48;8.80;;;;;;;9.26;50.43;96940.56;2072169;28;20198;-60
2024/01/19 10:16:15;;;;;;;13.70;8.07;;;;;;;9.46;51.32;96934.66;2071210;28;20361;-60
2024/01/19 10:17:17;;;;;;;11.23;7.10;;;;;;;9.40;50.10;96940.94;2072027;28;20214;-61
2024/01/19 10:18:19;;;;;;;16.25;7.70;;;;;;;9.32;49.39;96932.53;2071827;28;20275;-66
2024/01/19 10:19:21;;;;;;;20.08;8.20;;;;;;;9.76;50.15;96939.66;2059631;28;20246;-65
2024/01/19 10:20:23;;;;;;;12.98;8.13;;;;;;;10.36;50.16;96945.25;2059731;28;20257;-65
2024/01/19 10:21:30;;;;;;;14.02;8.18;;;;;;;9.93;49.51;96941.66;2071548;28;20212;-66
2024/01/19 10:22:35;;;;;;;14.45;8.25;;;;;;;9.55;50.76;96944.75;2068704;28;20194;-65
2024/01/19 10:23:37;;;;;;;13.95;8.95;;;;;;;9.66;52.17;96954.78;2063811;28;20336;-65
2024/01/19 10:24:41;;;;;;;19.90;8.65;;;;;;;9.54;50.75;96947.41;2070994;28;20703;-65
2024/01/19 10:25:43;;;;;;;17.10;10.02;;;;;;;9.66;50.76;96946.94;2072030;28;20225;-66
2024/01/19 10:26:52;;;;;;;20.90;9.80;;;;;;;9.97;50.06;96949.28;2072148;28;20194;-66
2024/01/19 10:27:53;;;;;;;14.75;8.35;;;;;;;9.81;49.79;96935.13;2072460;28;20229;-66
2024/01/19 10:28:55;;;;;;;14.15;9.05;;;;;;;9.59;51.49;96953.31;2077099;28;20229;-65
2024/01/19 10:30:10;;;;;;;21.50;9.35;;;;;;;9.84;50.72;96942.84;2071431;28;20285;-66
2024/01/19 10:31:17;;;;;;;13.27;8.73;;;;;;;9.20;50.07;96948.59;2072599;28;20322;-66
2024/01/19 10:32:21;;;;;;;17.88;8.98;;;;;;;9.42;52.15;96951.28;2067187;28;20198;-66
2024/01/19 10:33:23;;;;;;;17.92;8.63;;;;;;;9.28;51.37;96950.03;2065963;28;20249;-61
2024/01/19 10:34:28;;;;;;;13.52;7.65;;;;;;;9.59;50.56;96943.72;2069390;28;20198;-60
2024/01/19 10:35:31;;;;;;;14.50;7.93;;;;;;;9.83;51.48;96946.34;2071191;28;20226;-60
2024/01/19 10:36:39;;;;;;;15.35;8.52;;;;;;;9.27;50.88;96952.69;2074823;28;20231;-61
2024/01/19 10:37:42;;;;;;;11.25;6.88;;;;;;;9.11;52.81;96948.00;2076260;28;20200;-61
2024/01/19 10:38:43;;;;;;;12.90;6.13;;;;;;;9.99;52.33;96943.16;2080685;28;20250;-61
2024/01/19 10:39:45;;;;;;;14.13;7.38;;;;;;;9.76;51.65;96944.88;2079441;28;20677;-61
2024/01/19 10:40:46;;;;;;;13.20;7.07;;;;;;;9.74;51.39;96944.94;2071200;28;20208;-61
2024/01/19 10:41:49;;;;;;;14.00;8.10;;;;;;;9.82;51.49;96952.47;2079484;28;20200;-61
2024/01/19 10:42:56;;;;;;;16.75;8.70;;;;;;;9.61;52.54;96954.09;2071075;28;20228;-60
2024/01/19 10:44:12;;;;;;;13.80;7.25;;;;;;;8.92;53.08;96952.13;2071771;28;20244;-61
2024/01/19 10:45:16;;;;;;;16.50;7.40;;;;;;;8.78;52.84;96949.97;2071677;28;20195;-66
2024/01/19 10:46:22;;;;;;;13.73;7.63;;;;;;;8.95;52.83;96954.63;2071015;28;20745;-65
2024/01/19 10:47:23;;;;;;;12.50;6.80;;;;;;;8.62;51.73;96953.06;2070218;28;20741;-65
2024/01/19 10:48:26;;;;;;;13.13;7.50;;;;;;;9.23;54.10;96951.06;2070026;28;20226;-61
2024/01/19 10:49:28;;;;;;;13.80;7.68;;;;;;;9.02;52.92;96945.69;2070848;28;20288;-61
2024/01/19 10:50:31;;;;;;;14.15;7.70;;;;;;;8.78;52.73;96943.00;2070762;28;20214;-60
2024/01/19 10:51:39;;;;;;;19.00;8.27;;;;;;;9.23;54.49;96957.16;2070265;28;20234;-60
2024/01/19 10:52:45;;;;;;;17.73;7.43;;;;;;;9.03;53.42;96951.75;2069073;28;20210;-60
2024/01/19 10:53:48;;;;;;;12.15;6.93;;;;;;;9.06;53.35;96959.47;2073625;28;20185;-60
2024/01/19 10:54:51;;;;;;;11.20;6.72;;;;;;;8.57;54.10;96952.38;2074911;28;20761;-60
2024/01/19 10:55:53;;;;;;;11.90;7.30;;;;;;;9.32;54.58;96953.38;2071600;28;20659;-60
2024/01/19 10:57:05;;;;;;;21.67;8.70;;;;;;;9.36;53.44;96960.19;2071451;28;20205;-60
2024/01/19 10:58:07;;;;;;;13.07;5.82;;;;;;;8.76;52.74;96956.97;2070636;28;20348;-60
2024/01/19 10:59:12;;;;;;;10.10;5.95;;;;;;;9.74;53.81;96951.91;2071580;28;20551;-61
2024/01/19 11:00:28;;;;;;;8.93;5.50;;;;;;;9.77;51.46;96949.19;2070511;28;20194;-60
2024/01/19 11:01:29;;;;;;;8.15;5.50;;;;;;;9.45;52.34;96953.81;2070633;28;20288;-60
2024/01/19 11:02:32;;;;;;;9.52;5.80;;;;;;;10.10;53.51;96957.50;2069779;28;20190;-60
2024/01/19 11:03:33;;;;;;;10.63;6.13;;;;;;;9.23;54.07;96957.16;2071361;28;20646;-60
2024/01/19 11:04:37;;;;;;;11.30;5.78;;;;;;;9.42;52.39;96952.16;2071709;28;20210;-60
2024/01/19 11:05:45;;;;;;;9.55;5.38;;;;;;;9.77;51.99;96957.00;2071601;28;20199;-62
2024/01/19 11:06:47;;;;;;;11.45;5.30;;;;;;;10.05;52.03;96953.38;2071322;28;20227;-60
2024/01/19 11:07:57;;;;;;;13.98;5.65;;;;;;;9.47;51.21;96949.38;2070312;28;20266;-60
2024/01/19 11:08:59;;;;;;;10.02;6.25;;;;;;;9.29;52.03;96940.44;2069807;28;20242;-61
2024/01/19 11:10:00;;;;;;;10.02;6.15;;;;;;;9.76;52.36;96931.81;2074587;28;20201;-60
2024/01/19 11:11:06;;;;;;;16.17;5.60;;;;;;;9.20;52.59;96948.59;2074121;28;20200;-60
2024/01/19 11:12:09;;;;;;;9.77;5.43;;;;;;;8.24;53.40;96959.44;2071046;28;20204;-60
2024/01/19 11:13:14;;;;;;;10.63;5.65;;;;;;;8.00;54.90;96948.88;2059101;28;20226;-60
2024/01/19 11:14:22;;;;;;;11.13;5.85;;;;;;;8.68;53.55;96946.81;2070950;28;20198;-60
2024/01/19 11:15:40;;;;;;;11.45;5.57;;;;;;;8.26;53.96;96957.66;2069834;28;20202;-60
2024/01/19 11:16:47;;;;;;;14.18;5.45;;;;;;;8.37;55.15;96954.69;2071365;28;20201;-60
2024/01/19 11:17:49;;;;;;;10.45;5.95;;;;;;;8.51;53.96;96960.38;2070341;28;20206;-60
2024/01/19 11:18:52;;;;;;;15.23;6.95;;;;;;;8.66;54.44;96936.44;2071182;28;20201;-65
2024/01/19 11:19:54;;;;;;;9.05;5.30;;;;;;;8.69;52.56;96955.50;2071543;28;20220;-65
2024/01/19 11:20:57;;;;;;;14.02;6.07;;;;;;;8.06;52.10;96960.84;2071737;28;20240;-64
2024/01/19 11:21:59;;;;;;;8.60;5.65;;;;;;;8.15;53.18;96950.16;2071797;28;20201;-64
2024/01/19 11:23:02;;;;;;;9.02;4.50;;;;;;;7.34;53.10;96936.84;2071143;28;20222;-64
2024/01/19 11:24:06;;;;;;;12.95;5.88;;;;;;;7.15;54.13;96943.44;2071394;28;20676;-64
2024/01/19 11:25:13;;;;;;;14.70;6.28;;;;;;;8.00;55.03;96943.69;2070674;28;20190;-64
2024/01/19 11:26:29;;;;;;;9.90;5.68;;;;;;;7.76;54.21;96959.09;2070825;28;20225;-64
2024/01/19 11:27:40;;;;;;;9.60;5.20;;;;;;;7.63;53.70;96960.31;2070964;28;20694;-63
2024/01/19 11:29:03;;;;;;;11.07;5.22;;;;;;;7.26;55.12;96966.50;2071354;28;20216;-64
2024/01/19 11:30:19;;;;;;;14.75;6.18;;;;;;;9.06;55.84;96973.34;2071574;28;20198;-64
2024/01/19 11:31:23;;;;;;;8.55;5.20;;;;;;;9.00;54.29;96973.53;2070853;28;20259;-64
2024/01/19 11:32:25;;;;;;;11.10;5.60;;;;;;;8.76;53.87;96963.06;2069831;28;20196;-64
2024/01/19 11:33:31;;;;;;;11.82;4.25;;;;;;;8.91;54.38;96964.31;2070804;28;20256;-64
2024/01/19 11:34:48;;;;;;;9.00;4.80;;;;;;;8.89;54.47;96963.50;2071618;28;20721;-64
2024/01/19 11:35:50;;;;;;;11.15;5.95;;;;;;;9.12;53.99;96960.13;2071249;28;20197;-64
2024/01/19 11:36:52;;;;;;;6.32;3.80;;;;;;;9.16;52.07;96966.06;2071152;28;20205;-64
2024/01/19 11:37:53;;;;;;;12.40;4.95;;;;;;;8.97;51.67;96961.47;2069842;28;20681;-64
2024/01/19 11:38:55;;;;;;;7.95;4.63;;;;;;;9.30;53.79;96950.81;2069069;28;20197;-64
2024/01/19 11:39:56;;;;;;;8.02;4.30;;;;;;;8.36;50.79;96960.81;2065452;28;20285;-64
2024/01/19 11:40:57;;;;;;;9.30;4.47;;;;;;;8.15;51.62;96961.41;2070845;28;20205;-63
2024/01/19 11:41:59;;;;;;;9.70;4.60;;;;;;;8.57;52.00;96956.72;2071527;28;20615;-63
2024/01/19 11:43:01;;;;;;;12.43;5.70;;;;;;;8.06;53.24;96956.47;2070987;28;20230;-63
2024/01/19 11:44:03;;;;;;;10.75;5.63;;;;;;;8.57;53.84;96968.00;2070613;28;20212;-63
2024/01/19 11:45:05;;;;;;;8.90;4.15;;;;;;;9.24;53.26;96960.59;2071265;28;20225;-63
2024/01/19 11:46:08;;;;;;;8.45;3.60;;;;;;;9.76;53.12;96961.38;2070944;28;20236;-63
2024/01/19 11:47:36;;;;;;;7.65;3.92;;;;;;;10.18;51.07;96957.22;2071263;28;20602;-63
2024/01/19 11:48:40;;;;;;;5.90;3.10;;;;;;;10.24;50.84;96956.97;2070200;28;20811;-63
2024/01/19 11:49:46;;;;;;;7.05;3.45;;;;;;;10.44;51.97;96937.97;2068980;28;20209;-63
2024/01/19 11:50:51;;;;;;;6.88;3.88;;;;;;;10.35;51.04;96951.34;2071392;28;20260;-64
2024/01/19 11:51:52;;;;;;;7.90;3.83;;;;;;;9.97;53.44;96962.34;2071200;28;20719;-63
2024/01/19 11:52:54;;;;;;;9.30;4.25;;;;;;;8.69;54.93;96964.13;2071094;28;20217;-59
2024/01/19 11:53:58;;;;;;;8.18;4.40;;;;;;;7.75;57.02;96964.34;2071448;28;20712;-60
2024/01/19 11:55:22;;;;;;;6.70;3.78;;;;;;;9.03;54.43;96959.56;2070824;28;20206;-60
2024/01/19 11:56:24;;;;;;;8.80;4.20;;;;;;;9.33;54.74;96960.28;2070547;28;20240;-60
2024/01/19 11:57:28;;;;;;;7.97;4.03;;;;;;;7.25;57.32;96965.69;2071095;28;20194;-59
2024/01/19 11:58:38;;;;;;;7.28;4.18;;;;;;;6.14;59.76;96970.91;2070533;28;20221;-60
2024/01/19 11:59:40;;;;;;;5.95;4.20;;;;;;;5.17;62.98;96958.13;2070951;28;20197;-60
2024/01/19 12:00:41;;;;;;;6.80;3.65;;;;;;;5.49;62.41;96972.22;2071461;28;20201;-59
2024/01/19 12:01:43;;;;;;;6.72;4.05;;;;;;;4.95;64.30;96970.56;2071411;28;20205;-60
2024/01/19 12:02:46;;;;;;;7.80;4.20;;;;;;;4.77;64.47;96975.16;2070526;28;20225;-60
2024/01/19 12:03:52;;;;;;;9.68;5.40;;;;;;;4.03;67.08;96976.28;2071169;28;20201;-59
2024/01/19 12:04:57;;;;;;;7.97;4.70;;;;;;;3.67;67.81;96970.69;2070997;28;20209;-59
2024/01/19 12:06:00;;;;;;;13.15;5.32;;;;;;;3.63;67.83;96977.66;2070529;28;20292;-59
2024/01/19 12:07:03;;;;;;;9.20;5.43;;;;;;;3.89;68.98;96968.72;2071153;28;20286;-59
2024/01/19 12:08:06;;;;;;;9.93;5.30;;;;;;;3.72;68.93;96974.06;2070905;28;20251;-59
2024/01/19 12:09:09;;;;;;;13.13;6.00;;;;;;;3.36;70.08;96978.78;2071292;28;20309;-59
2024/01/19 12:10:16;;;;;;;11.23;6.38;;;;;;;3.28;71.87;96978.88;2071330;28;20236;-59
2024/01/19 12:11:17;;;;;;;9.43;5.85;;;;;;;3.28;71.93;96981.47;2071413;28;20504;-59
2024/01/19 12:12:19;;;;;;;7.35;5.07;;;;;;;2.80;71.56;96981.91;2071396;28;20235;-59
2024/01/19 12:13:20;;;;;;;11.98;5.40;;;;;;;2.92;71.80;96986.97;2070681;28;20216;-61
2024/01/19 12:14:23;;;;;;;11.43;6.30;;;;;;;2.89;71.43;96968.06;2071439;28;20713;-59
2024/01/19 12:15:24;;;;;;;13.10;5.60;;;;;;;2.46;72.09;96984.75;2071353;28;20751;-59
2024/01/19 12:16:26;;;;;;;8.63;5.05;;;;;;;2.45;73.77;96975.28;2071355;28;20637;-59
2024/01/19 12:17:28;;;;;;;17.08;6.10;;;;;;;2.31;72.85;96987.44;2071322;28;20217;-59
2024/01/19 12:18:34;;;;;;;9.73;5.80;;;;;;;2.70;74.03;96988.00;2069897;28;20226;-59
2024/01/19 12:19:36;;;;;;;10.35;5.43;;;;;;;2.43;73.54;96987.34;2070809;28;20293;-59
2024/01/19 12:20:41;;;;;;;12.35;5.97;;;;;;;3.33;72.89;96999.50;2070716;28;20243;-59
2024/01/19 12:21:42;;;;;;;7.88;5.40;;;;;;;3.68;71.21;96990.47;2071307;28;20331;-59
2024/01/19 12:22:52;;;;;;;12.57;6.55;;;;;;;4.83;68.92;96989.75;2070370;28;20623;-59
2024/01/19 12:23:56;;;;;;;10.95;5.85;;;;;;;4.92;66.97;96992.19;2069929;28;20563;-59
2024/01/19 12:25:17;;;;;;;8.70;5.22;;;;;;;4.31;68.27;96978.50;2071326;28;20190;-59
2024/01/19 12:26:22;;;;;;;11.18;6.32;;;;;;;4.15;69.20;96983.00;2070782;28;20297;-59
2024/01/19 12:27:24;;;;;;;11.95;6.50;;;;;;;3.33;69.22;96997.75;2071303;28;20201;-59
2024/01/19 12:28:27;;;;;;;12.77;6.60;;;;;;;3.21;70.44;96988.41;2070264;28;20232;-60
2024/01/19 12:29:30;;;;;;;12.75;6.30;;;;;;;4.23;69.17;96989.78;2065949;28;20206;-59
2024/01/19 12:30:34;;;;;;;13.77;7.38;;;;;;;4.91;67.99;96995.66;2067211;28;20216;-59
2024/01/19 12:31:37;;;;;;;11.00;6.03;;;;;;;6.24;65.01;96997.50;2071044;28;20225;-59
2024/01/19 12:32:39;;;;;;;14.88;6.78;;;;;;;6.24;65.01;96997.50;2070996;28;20209;-60
2024/01/19 12:33:41;;;;;;;9.90;6.22;;;;;;;7.48;60.84;96995.38;2070311;28;20215;-59
2024/01/19 12:35:00;;;;;;;12.10;6.00;;;;;;;6.88;62.35;96995.16;2071143;28;20202;-59
2024/01/19 12:36:07;;;;;;;11.25;5.97;;;;;;;6.34;62.42;96997.25;2066308;28;20189;-59
2024/01/19 12:37:09;;;;;;;12.57;6.90;;;;;;;5.50;63.51;96995.47;2066516;28;20207;-59
2024/01/19 12:38:12;;;;;;;10.15;5.50;;;;;;;4.98;64.52;96999.00;2070662;28;20694;-59
2024/01/19 12:39:14;;;;;;;11.55;6.35;;;;;;;4.67;65.72;97007.25;2071102;28;20285;-59
2024/01/19 12:40:18;;;;;;;9.50;5.55;;;;;;;4.70;66.96;97009.81;2071289;28;20197;-59
2024/01/19 12:41:20;;;;;;;17.20;6.25;;;;;;;4.54;66.81;97004.00;2071177;28;20758;-59
2024/01/19 12:42:25;;;;;;;12.63;6.47;;;;;;;4.11;67.26;97007.19;2071188;28;20231;-59
2024/01/19 12:43:33;;;;;;;18.40;7.07;;;;;;;4.14;100.00;97013.19;2070376;28;20736;-59
2024/01/19 12:44:34;;;;;;;12.50;6.60;;;;;;;4.45;67.49;97007.56;2069534;28;20199;-59
2024/01/19 12:45:36;;;;;;;14.45;6.95;;;;;;;4.27;67.57;97010.41;2071134;28;20742;-59
2024/01/19 12:46:46;;;;;;;12.40;6.95;;;;;;;4.99;67.35;97008.47;2071101;28;20202;-59
2024/01/19 12:47:52;;;;;;;17.88;7.47;;;;;;;-145.49;100.00;55703.94;2070052;28;20249;-59
2024/01/19 12:49:02;;;;;;;10.80;6.95;;;;;;;-145.49;100.00;55703.94;2069644;28;20193;-59
2024/01/19 12:50:05;;;;;;;13.15;6.47;;;;;;;-145.49;100.00;55703.94;2078061;28;20296;-59
2024/01/19 12:51:14;;;;;;;11.48;6.10;;;;;;;8.00;60.68;97009.53;2077174;28;20207;-59
2024/01/19 12:52:17;;;;;;;13.27;5.72;;;;;;;8.10;58.86;97002.34;2071008;28;20205;-59
2024/01/19 12:53:19;;;;;;;12.20;6.10;;;;;;;8.43;58.90;97009.16;2070713;28;20229;-59
2024/01/19 12:54:20;;;;;;;9.43;5.55;;;;;;;9.13;56.95;97006.13;2072079;28;20251;-59
2024/01/19 12:55:40;;;;;;;17.00;6.93;;;;;;;8.31;57.03;97003.41;2071744;28;20204;-59
2024/01/19 12:56:42;;;;;;;13.20;5.88;;;;;;;8.56;57.33;97004.47;2072564;28;20213;-59
2024/01/19 12:57:49;;;;;;;10.60;6.05;;;;;;;7.73;57.02;97005.09;2071659;28;20259;-59
2024/01/19 12:58:51;;;;;;;9.02;5.72;;;;;;;-145.49;100.00;55703.94;2072215;28;20228;-59
2024/01/19 13:00:08;;;;;;;15.18;5.90;;;;;;;-145.49;100.00;55703.94;2072511;28;20201;-59
2024/01/19 13:01:10;;;;;;;12.55;5.55;;;;;;;-145.49;100.00;55703.94;2072213;28;20201;-59
2024/01/19 13:02:13;;;;;;;10.73;5.10;;;;;;;-145.49;100.00;55703.94;2072198;28;20325;-59
2024/01/19 13:03:20;;;;;;;11.65;6.07;;;;;;;-145.49;100.00;55703.94;2072007;28;20884;-59
2024/01/19 13:04:23;;;;;;;11.10;6.18;;;;;;;-145.49;100.00;55703.94;2071185;28;20202;-59
2024/01/19 13:05:27;;;;;;;11.40;6.18;;;;;;;-145.49;100.00;55703.94;2072459;28;20201;-59
2024/01/19 13:06:29;;;;;;;11.38;5.90;;;;;;;-145.49;100.00;55703.94;2072557;28;20651;-59